createdAt,value
2022-12-23T00:00:54.892Z,88.92
2022-12-23T00:04:16.234Z,88.57
2022-12-23T00:07:37.971Z,88.27
2022-12-23T00:11:01.235Z,88.33
2022-12-23T00:14:36.444Z,88.49
2022-12-23T00:17:57.873Z,88.37
2022-12-23T00:21:19.348Z,87.70
2022-12-23T00:24:40.613Z,87.93
2022-12-23T00:28:03.733Z,88.18
2022-12-23T00:31:26.442Z,87.96
2022-12-23T00:34:47.740Z,88.38
2022-12-23T00:38:09.165Z,88.02
2022-12-23T00:41:48.786Z,88.11
2022-12-23T00:45:16.472Z,87.66
2022-12-23T00:48:55.447Z,87.71
2022-12-23T00:52:16.922Z,87.38
2022-12-23T00:55:38.773Z,87.14
2022-12-23T00:59:00.929Z,86.83
2022-12-23T01:02:41.281Z,86.48
2022-12-23T01:06:03.860Z,87.36
2022-12-23T01:09:26.064Z,87.98
2022-12-23T01:12:47.428Z,87.97
2022-12-23T01:16:16.838Z,88.31
2022-12-23T01:19:40.783Z,88.25
2022-12-23T01:23:02.435Z,88.48
2022-12-23T01:26:24.224Z,88.82
2022-12-23T01:29:46.995Z,89.12
2022-12-23T01:33:09.054Z,88.94
2022-12-23T01:36:32.450Z,88.51
2022-12-23T01:39:53.821Z,88.49
2022-12-23T01:43:17.373Z,88.40
2022-12-23T01:46:38.851Z,88.00
2022-12-23T01:50:06.017Z,88.30
2022-12-23T01:53:32.587Z,88.61
2022-12-23T01:56:54.178Z,88.14
2022-12-23T02:00:34.147Z,88.37
2022-12-23T02:03:58.764Z,87.96
2022-12-23T02:07:38.110Z,88.05
2022-12-23T02:11:28.281Z,88.10
2022-12-23T02:15:31.262Z,88.02
2022-12-23T02:19:12.563Z,87.62
2022-12-23T02:22:55.759Z,87.95
2022-12-23T02:26:49.018Z,88.03
2022-12-23T02:30:37.980Z,88.04
2022-12-23T02:34:08.047Z,88.40
2022-12-23T02:37:37.053Z,88.71
2022-12-23T02:41:08.369Z,88.89
2022-12-23T02:44:37.361Z,88.65
2022-12-23T02:48:05.911Z,88.78
2022-12-23T02:51:32.806Z,88.44
2022-12-23T02:55:00.223Z,88.10
2022-12-23T02:58:28.254Z,87.88
2022-12-23T03:01:52.014Z,87.90
2022-12-23T03:05:30.681Z,88.04
2022-12-23T03:08:55.614Z,88.41
2022-12-23T03:12:28.489Z,88.05
2022-12-23T03:15:56.944Z,88.23
2022-12-23T03:19:27.180Z,87.98
2022-12-23T03:23:00.171Z,87.60
2022-12-23T03:26:26.286Z,87.54
2022-12-23T03:29:55.281Z,87.25
2022-12-23T03:33:20.528Z,87.06
2022-12-23T03:36:47.942Z,86.96
2022-12-23T03:40:16.148Z,87.02
2022-12-23T03:43:48.323Z,87.13
2022-12-23T03:47:15.962Z,87.04
2022-12-23T03:50:41.517Z,87.29
2022-12-23T03:54:11.016Z,87.57
2022-12-23T03:57:39.771Z,87.48
2022-12-23T04:01:11.015Z,87.69
2022-12-23T04:04:46.444Z,87.52
2022-12-23T04:08:14.298Z,87.68
2022-12-23T04:11:37.530Z,87.96
2022-12-23T04:15:00.269Z,88.20
2022-12-23T04:18:21.846Z,88.37
2022-12-23T04:21:43.341Z,88.44
2022-12-23T04:25:05.700Z,88.63
2022-12-23T04:28:27.366Z,88.59
2022-12-23T04:31:49.945Z,88.85
2022-12-23T04:35:13.257Z,89.00
2022-12-23T04:38:34.990Z,88.93
2022-12-23T04:41:56.707Z,89.23
2022-12-23T04:45:18.502Z,89.18
2022-12-23T04:48:41.646Z,89.48
2022-12-23T04:52:03.425Z,89.30
2022-12-23T04:55:25.159Z,89.61
2022-12-23T04:58:48.023Z,89.47
2022-12-23T05:02:09.680Z,89.78
2022-12-23T05:05:32.837Z,89.81
2022-12-23T05:08:54.733Z,90.07
2022-12-23T05:12:16.136Z,90.21
2022-12-23T05:15:37.876Z,90.26
2022-12-23T05:18:59.536Z,90.54
2022-12-23T05:22:22.447Z,90.45
2022-12-23T05:25:43.802Z,90.63
2022-12-23T05:29:06.167Z,90.99
2022-12-23T05:32:29.908Z,90.96
2022-12-23T05:35:51.848Z,90.71
2022-12-23T05:39:14.956Z,90.77
2022-12-23T05:42:36.407Z,90.51
2022-12-23T05:45:58.328Z,89.88
2022-12-23T05:49:20.042Z,90.07
2022-12-23T05:52:41.824Z,89.91
2022-12-23T05:56:07.037Z,90.26
2022-12-23T05:59:31.294Z,90.31
2022-12-23T06:02:54.250Z,90.30
2022-12-23T06:06:16.176Z,90.24
2022-12-23T06:09:38.011Z,90.51
2022-12-23T06:13:00.689Z,90.34
2022-12-23T06:16:22.721Z,90.00
2022-12-23T06:19:44.369Z,90.00
2022-12-23T06:23:06.115Z,89.86
2022-12-23T06:26:27.981Z,89.66
2022-12-23T06:29:51.098Z,90.24
2022-12-23T06:33:12.189Z,90.01
2022-12-23T06:36:33.875Z,89.85
2022-12-23T06:39:55.292Z,89.73
2022-12-23T06:43:17.355Z,89.46
2022-12-23T06:46:40.368Z,89.39
2022-12-23T06:50:01.917Z,89.78
2022-12-23T06:53:23.772Z,89.76
2022-12-23T06:56:45.177Z,90.01
2022-12-23T07:00:08.277Z,90.38
2022-12-23T07:03:32.833Z,90.27
2022-12-23T07:06:54.617Z,90.32
2022-12-23T07:10:16.566Z,90.62
2022-12-23T07:13:38.247Z,90.41
2022-12-23T07:17:00.125Z,90.41
2022-12-23T07:20:23.119Z,90.04
2022-12-23T07:23:44.708Z,89.94
2022-12-23T07:27:06.588Z,90.03
2022-12-23T07:30:29.152Z,90.40
2022-12-23T07:33:50.595Z,90.30
2022-12-23T07:37:13.901Z,90.12
2022-12-23T07:40:36.055Z,90.26
2022-12-23T07:43:57.606Z,90.50
2022-12-23T07:47:19.323Z,90.58
2022-12-23T07:50:41.123Z,90.55
2022-12-23T07:54:03.845Z,90.55
2022-12-23T07:57:25.413Z,90.78
2022-12-23T08:00:46.978Z,90.64
2022-12-23T08:04:09.143Z,90.52
2022-12-23T08:07:30.682Z,90.97
2022-12-23T08:10:58.226Z,91.14
2022-12-23T08:14:20.093Z,90.82
2022-12-23T08:17:41.797Z,90.97
2022-12-23T08:21:14.762Z,91.20
2022-12-23T08:24:36.077Z,90.88
2022-12-23T08:27:59.235Z,91.12
2022-12-23T08:31:22.913Z,91.09
2022-12-23T08:34:44.373Z,90.97
2022-12-23T08:38:07.492Z,90.93
2022-12-23T08:41:31.203Z,90.25
2022-12-23T08:44:54.155Z,90.14
2022-12-23T08:48:16.363Z,90.28
2022-12-23T08:51:38.793Z,90.09
2022-12-23T08:55:00.186Z,90.17
2022-12-23T08:58:22.139Z,90.15
2022-12-23T09:01:45.478Z,90.28
2022-12-23T09:05:07.128Z,90.39
2022-12-23T09:08:28.631Z,90.08
2022-12-23T09:11:50.573Z,90.54
2022-12-23T09:15:12.453Z,90.61
2022-12-23T09:18:35.712Z,90.54
2022-12-23T09:21:57.074Z,90.65
2022-12-23T09:25:18.655Z,90.83
2022-12-23T09:28:41.181Z,90.88
2022-12-23T09:32:02.558Z,90.82
2022-12-23T09:35:25.682Z,91.06
2022-12-23T09:38:47.713Z,91.09
2022-12-23T09:42:28.030Z,91.58
2022-12-23T09:46:00.301Z,91.85
2022-12-23T09:49:24.381Z,91.93
2022-12-23T09:52:55.520Z,92.43
2022-12-23T09:56:24.504Z,92.10
2022-12-23T10:00:02.939Z,91.98
2022-12-23T10:03:30.097Z,92.29
2022-12-23T10:07:02.824Z,92.22
2022-12-23T10:10:33.883Z,92.06
2022-12-23T10:13:58.795Z,92.06
2022-12-23T10:17:28.112Z,91.97
2022-12-23T10:20:54.963Z,91.82
2022-12-23T10:24:22.809Z,92.18
2022-12-23T10:27:46.317Z,91.60
2022-12-23T10:35:09.053Z,91.76
2022-12-23T10:38:52.228Z,92.00
2022-12-23T10:42:25.568Z,92.11
2022-12-23T10:45:59.159Z,92.42
2022-12-23T10:49:31.654Z,91.99
2022-12-23T10:52:55.215Z,92.18
2022-12-23T10:56:18.226Z,92.41
2022-12-23T10:59:40.830Z,92.13
2022-12-23T11:03:16.651Z,92.33
2022-12-23T11:06:42.047Z,92.30
2022-12-23T11:10:06.361Z,93.49
2022-12-23T11:13:36.619Z,93.63
2022-12-23T11:16:58.524Z,93.18
2022-12-23T11:20:21.723Z,93.27
2022-12-23T11:23:43.189Z,92.87
2022-12-23T11:27:07.360Z,93.22
2022-12-23T11:30:31.155Z,93.57
2022-12-23T11:33:59.388Z,93.52
2022-12-23T11:37:35.714Z,93.51
2022-12-23T11:40:58.069Z,93.37
2022-12-23T11:44:23.497Z,92.43
2022-12-23T11:47:45.236Z,92.64
2022-12-23T11:51:07.133Z,92.37
2022-12-23T11:54:30.718Z,92.29
2022-12-23T11:57:53.595Z,92.32
2022-12-23T12:01:18.894Z,92.53
2022-12-23T12:04:41.854Z,92.61
2022-12-23T12:08:06.841Z,92.10
2022-12-23T12:11:33.999Z,92.29
2022-12-23T12:14:57.666Z,91.99
2022-12-23T12:18:22.052Z,91.52
2022-12-23T12:21:45.003Z,91.39
2022-12-23T12:25:18.717Z,91.38
2022-12-23T12:28:44.162Z,90.85
2022-12-23T12:32:10.910Z,91.01
2022-12-23T12:35:37.901Z,91.39
2022-12-23T12:39:00.912Z,90.91
2022-12-23T12:42:27.816Z,91.17
2022-12-23T12:45:54.881Z,91.19
2022-12-23T12:49:23.538Z,91.19
2022-12-23T12:52:45.423Z,91.24
2022-12-23T12:56:13.235Z,91.33
2022-12-23T12:59:37.758Z,90.85
2022-12-23T13:03:24.192Z,91.14
2022-12-23T13:06:53.143Z,91.06
2022-12-23T13:10:24.399Z,90.98
2022-12-23T13:13:53.495Z,90.49
2022-12-23T13:17:22.803Z,89.90
2022-12-23T13:20:50.900Z,90.06
2022-12-23T13:24:22.136Z,89.53
2022-12-23T13:27:50.484Z,89.57
2022-12-23T13:31:18.411Z,89.71
2022-12-23T13:34:49.925Z,90.30
2022-12-23T13:38:29.199Z,89.96
2022-12-23T13:41:57.380Z,89.93
2022-12-23T13:45:28.689Z,89.81
2022-12-23T13:48:57.636Z,90.04
2022-12-23T13:52:29.869Z,89.53
2022-12-23T13:56:10.197Z,89.91
2022-12-23T13:59:41.008Z,89.46
2022-12-23T14:03:19.219Z,89.22
2022-12-23T14:06:45.866Z,89.42
2022-12-23T14:10:13.203Z,89.09
2022-12-23T14:13:44.079Z,89.03
2022-12-23T14:17:16.496Z,88.91
2022-12-23T14:20:49.407Z,88.93
2022-12-23T14:24:35.657Z,88.50
2022-12-23T14:28:05.606Z,88.77
2022-12-23T14:31:37.050Z,88.48
2022-12-23T14:35:19.271Z,88.65
2022-12-23T14:38:41.136Z,88.70
2022-12-23T14:42:06.782Z,88.63
2022-12-23T14:45:36.052Z,89.20
2022-12-23T14:49:39.424Z,89.06
2022-12-23T14:53:02.320Z,89.17
2022-12-23T14:56:34.603Z,88.73
2022-12-23T15:00:02.606Z,88.93
2022-12-23T15:03:24.312Z,89.33
2022-12-23T15:06:50.108Z,89.38
2022-12-23T15:10:19.457Z,89.35
2022-12-23T15:13:41.222Z,88.97
2022-12-23T15:17:16.323Z,88.92
2022-12-23T15:20:38.468Z,88.79
2022-12-23T15:24:01.395Z,88.73
2022-12-23T15:27:28.355Z,88.77
2022-12-23T15:30:53.528Z,88.23
2022-12-23T15:34:23.168Z,88.51
2022-12-23T15:37:45.245Z,88.26
2022-12-23T15:41:18.550Z,88.66
2022-12-23T15:44:40.771Z,88.41
2022-12-23T15:48:04.367Z,88.18
2022-12-23T15:51:58.329Z,87.94
2022-12-23T15:55:16.560Z,88.12
2022-12-23T15:58:43.051Z,87.83
2022-12-23T16:02:40.533Z,88.07
2022-12-23T16:05:52.974Z,87.94
2022-12-23T16:09:30.894Z,88.17
2022-12-23T16:12:53.667Z,87.99
2022-12-23T16:16:32.204Z,88.24
2022-12-23T16:19:56.060Z,88.50
2022-12-23T16:23:18.913Z,88.32
2022-12-23T16:26:42.308Z,88.38
2022-12-23T16:30:12.258Z,88.34
2022-12-23T16:33:39.745Z,88.82
2022-12-23T16:37:01.440Z,88.93
2022-12-23T16:40:24.440Z,89.18
2022-12-23T16:43:52.142Z,88.62
2022-12-23T16:47:18.603Z,88.47
2022-12-23T16:50:41.644Z,88.57
2022-12-23T16:54:03.472Z,88.55
2022-12-23T16:57:25.047Z,88.70
2022-12-23T17:00:47.490Z,88.54
2022-12-23T17:04:09.954Z,88.79
2022-12-23T17:07:32.700Z,89.28
2022-12-23T17:10:54.099Z,88.94
2022-12-23T17:14:18.101Z,88.61
2022-12-23T17:17:40.382Z,88.97
2022-12-23T17:21:02.117Z,89.40
2022-12-23T17:24:26.646Z,88.92
2022-12-23T17:27:50.027Z,88.83
2022-12-23T17:31:15.393Z,88.76
2022-12-23T17:34:38.868Z,89.04
2022-12-23T17:38:02.195Z,89.06
2022-12-23T17:41:28.945Z,89.38
2022-12-23T17:44:50.540Z,88.98
2022-12-23T17:48:17.969Z,89.73
2022-12-23T17:51:43.547Z,89.47
2022-12-23T17:55:05.387Z,89.70
2022-12-23T17:58:28.155Z,89.50
2022-12-23T18:01:50.393Z,88.89
2022-12-23T18:05:22.836Z,88.98
2022-12-23T18:08:44.462Z,89.00
2022-12-23T18:12:07.171Z,88.76
2022-12-23T18:15:35.241Z,88.62
2022-12-23T18:18:57.397Z,88.57
2022-12-23T18:22:21.164Z,88.45
2022-12-23T18:25:43.032Z,88.56
2022-12-23T18:29:04.472Z,89.23
2022-12-23T18:32:29.206Z,89.28
2022-12-23T18:35:51.315Z,88.98
2022-12-23T18:39:12.771Z,88.54
2022-12-23T18:42:34.460Z,88.52
2022-12-23T18:45:56.239Z,88.74
2022-12-23T18:49:19.562Z,88.99
2022-12-23T18:52:41.235Z,89.17
2022-12-23T18:56:02.875Z,89.02
2022-12-23T18:59:30.020Z,88.72
2022-12-23T19:02:53.940Z,89.18
2022-12-23T19:06:17.110Z,88.88
2022-12-23T19:09:38.706Z,88.73
2022-12-23T19:13:00.603Z,88.52
2022-12-23T19:16:22.653Z,88.72
2022-12-23T19:19:44.396Z,88.69
2022-12-23T19:23:07.065Z,88.76
2022-12-23T19:26:28.993Z,89.00
2022-12-23T19:29:50.599Z,88.47
2022-12-23T19:33:13.266Z,88.86
2022-12-23T19:36:35.313Z,88.68
2022-12-23T19:39:58.259Z,89.00
2022-12-23T19:43:20.019Z,89.28
2022-12-23T19:46:42.162Z,89.49
2022-12-23T19:50:03.508Z,89.41
2022-12-23T19:53:25.334Z,89.45
2022-12-23T19:56:51.878Z,89.70
2022-12-23T20:00:16.009Z,90.00
2022-12-23T20:03:38.622Z,89.88
2022-12-23T20:07:00.421Z,90.16
2022-12-23T20:10:21.677Z,90.16
2022-12-23T20:13:45.693Z,90.04
2022-12-23T20:17:07.418Z,89.79
2022-12-23T20:20:29.536Z,89.55
2022-12-23T20:23:51.440Z,88.91
2022-12-23T20:27:15.782Z,89.41
2022-12-23T20:30:39.097Z,89.37
2022-12-23T20:34:01.514Z,89.13
2022-12-23T20:37:23.285Z,88.94
2022-12-23T20:40:45.146Z,89.14
2022-12-23T20:44:33.956Z,89.19
2022-12-23T20:47:49.601Z,88.83
2022-12-23T20:51:13.867Z,88.82
2022-12-23T20:54:35.225Z,88.82
2022-12-23T20:57:57.135Z,88.65
2022-12-23T21:01:18.916Z,89.08
2022-12-23T21:04:42.013Z,88.78
2022-12-23T21:08:03.836Z,89.07
2022-12-23T21:11:25.437Z,89.01
2022-12-23T21:14:47.060Z,89.21
2022-12-23T21:18:08.737Z,89.27
2022-12-23T21:21:32.081Z,89.06
2022-12-23T21:24:53.336Z,89.07
2022-12-23T21:28:15.142Z,89.72
2022-12-23T21:31:38.851Z,89.20
2022-12-23T21:35:01.655Z,89.48
2022-12-23T21:38:24.696Z,89.34
2022-12-23T21:41:46.015Z,89.20
2022-12-23T21:45:08.834Z,89.04
2022-12-23T21:48:32.518Z,89.34
2022-12-23T21:51:54.381Z,89.35
2022-12-23T21:55:18.150Z,89.53
2022-12-23T21:58:40.257Z,89.76
2022-12-23T22:02:01.733Z,89.58
2022-12-23T22:05:23.404Z,89.79
2022-12-23T22:08:45.187Z,89.71
2022-12-23T22:12:08.619Z,89.88
2022-12-23T22:15:30.298Z,89.57
2022-12-23T22:18:53.099Z,89.58
2022-12-23T22:22:14.693Z,89.78
2022-12-23T22:25:36.378Z,89.84
2022-12-23T22:29:01.181Z,89.86
2022-12-23T22:32:22.839Z,90.15
2022-12-23T22:35:44.284Z,90.31
2022-12-23T22:39:07.775Z,90.13
2022-12-23T22:42:29.573Z,90.11
2022-12-23T22:45:58.589Z,90.07
2022-12-23T22:49:20.431Z,89.89
2022-12-23T22:52:42.356Z,90.17
2022-12-23T22:56:05.251Z,90.11
2022-12-23T22:59:27.152Z,90.20
2022-12-23T23:02:50.104Z,90.19
2022-12-23T23:06:12.253Z,90.28
2022-12-23T23:09:33.551Z,90.10
2022-12-23T23:12:55.230Z,90.19
2022-12-23T23:16:17.077Z,89.95
2022-12-23T23:19:39.987Z,89.75
2022-12-23T23:23:01.668Z,89.61
2022-12-23T23:26:26.804Z,89.70
2022-12-23T23:29:48.328Z,89.81
2022-12-23T23:33:11.499Z,89.74
2022-12-23T23:36:34.396Z,89.55
2022-12-23T23:39:55.595Z,89.47
2022-12-23T23:43:17.294Z,88.92
2022-12-23T23:46:39.309Z,89.05
2022-12-23T23:50:00.834Z,88.67
2022-12-23T23:53:23.485Z,88.04
2022-12-23T23:56:45.163Z,87.83
